createdAt,value
2018-08-16T00:01:08.148Z,16.90
2018-08-16T00:03:37.344Z,16.90
2018-08-16T00:06:06.670Z,16.80
2018-08-16T00:08:35.860Z,16.80
2018-08-16T00:11:05.097Z,16.70
2018-08-16T00:13:34.311Z,16.60
2018-08-16T00:16:03.605Z,16.60
2018-08-16T00:18:32.810Z,16.50
2018-08-16T00:21:02.025Z,16.50
2018-08-16T00:23:31.249Z,16.40
2018-08-16T00:26:00.446Z,16.40
2018-08-16T00:28:29.662Z,16.40
2018-08-16T00:30:58.928Z,16.40
2018-08-16T00:33:28.221Z,16.30
2018-08-16T00:36:04.242Z,16.30
2018-08-16T00:38:33.467Z,16.20
2018-08-16T00:41:02.670Z,16.10
2018-08-16T00:43:31.914Z,16.20
2018-08-16T00:46:01.136Z,16.10
2018-08-16T00:48:30.517Z,16.10
2018-08-16T00:50:59.771Z,16.00
2018-08-16T00:53:29.035Z,16.00
2018-08-16T00:55:58.246Z,15.90
2018-08-16T00:58:27.458Z,15.80
2018-08-16T01:00:56.683Z,15.90
2018-08-16T01:03:25.900Z,15.80
2018-08-16T01:05:55.109Z,15.80
2018-08-16T01:08:24.339Z,15.80
2018-08-16T01:10:53.528Z,15.80
2018-08-16T01:13:22.761Z,15.80
2018-08-16T01:15:51.967Z,15.70
2018-08-16T01:18:21.208Z,15.70
2018-08-16T01:20:50.396Z,15.70
2018-08-16T01:23:19.607Z,15.70
2018-08-16T01:25:48.797Z,15.70
2018-08-16T01:28:18.007Z,15.60
2018-08-16T01:30:47.231Z,15.60
2018-08-16T01:33:16.447Z,15.60
2018-08-16T01:35:45.819Z,15.60
2018-08-16T01:38:14.905Z,15.60
2018-08-16T01:40:44.105Z,15.60
2018-08-16T01:43:13.317Z,15.60
2018-08-16T01:45:42.500Z,15.60
2018-08-16T01:48:12.434Z,15.50
2018-08-16T01:50:41.899Z,15.50
2018-08-16T01:53:11.340Z,15.50
2018-08-16T01:55:40.514Z,15.40
2018-08-16T01:58:09.734Z,15.40
2018-08-16T02:00:39.006Z,15.30
2018-08-16T02:03:08.390Z,15.30
2018-08-16T02:05:37.607Z,15.40
2018-08-16T02:08:06.854Z,15.40
2018-08-16T02:10:36.090Z,15.30
2018-08-16T02:13:05.413Z,15.20
2018-08-16T02:15:34.618Z,15.00
2018-08-16T02:18:03.844Z,14.90
2018-08-16T02:20:33.041Z,15.00
2018-08-16T02:23:02.329Z,14.90
2018-08-16T02:25:31.544Z,15.00
2018-08-16T02:28:00.809Z,14.90
2018-08-16T02:30:30.072Z,14.90
2018-08-16T02:32:59.330Z,14.90
2018-08-16T02:35:28.550Z,15.00
2018-08-16T02:37:57.793Z,14.90
2018-08-16T02:40:26.998Z,14.90
2018-08-16T02:42:56.225Z,14.90
2018-08-16T02:45:25.447Z,14.80
2018-08-16T02:47:54.696Z,14.70
2018-08-16T02:50:23.885Z,14.60
2018-08-16T02:52:53.141Z,14.60
2018-08-16T02:55:22.393Z,14.50
2018-08-16T02:57:51.618Z,14.60
2018-08-16T03:00:21.645Z,14.50
2018-08-16T03:02:50.921Z,14.60
2018-08-16T03:05:20.141Z,14.70
2018-08-16T03:07:49.352Z,14.60
2018-08-16T03:10:18.581Z,14.60
2018-08-16T03:12:47.772Z,14.60
2018-08-16T03:15:17.409Z,14.60
2018-08-16T03:17:46.624Z,14.60
2018-08-16T03:20:15.836Z,14.50
2018-08-16T03:22:45.031Z,14.60
2018-08-16T03:25:14.238Z,14.60
2018-08-16T03:27:43.446Z,14.60
2018-08-16T03:30:12.661Z,14.60
2018-08-16T03:32:41.896Z,14.70
2018-08-16T03:35:11.166Z,14.60
2018-08-16T03:37:40.358Z,14.50
2018-08-16T03:40:09.588Z,14.50
2018-08-16T03:42:38.785Z,14.50
2018-08-16T03:45:08.761Z,14.50
2018-08-16T03:47:38.156Z,14.50
2018-08-16T03:50:08.110Z,14.50
2018-08-16T03:52:37.608Z,14.60
2018-08-16T03:55:06.905Z,14.50
2018-08-16T03:57:36.113Z,14.30
2018-08-16T04:00:06.709Z,14.20
2018-08-16T04:02:35.898Z,14.20
2018-08-16T04:05:05.603Z,14.20
2018-08-16T04:07:35.042Z,14.10
2018-08-16T04:10:04.853Z,14.20
2018-08-16T04:12:34.039Z,14.20
2018-08-16T04:15:03.312Z,14.20
2018-08-16T04:17:34.925Z,14.20
2018-08-16T04:20:05.076Z,14.20
2018-08-16T04:22:34.905Z,14.10
2018-08-16T04:25:04.520Z,13.90
2018-08-16T04:27:33.759Z,13.90
2018-08-16T04:30:02.959Z,13.90
2018-08-16T04:32:32.150Z,13.90
2018-08-16T04:35:01.390Z,13.90
2018-08-16T04:37:30.644Z,14.00
2018-08-16T04:39:59.925Z,14.00
2018-08-16T04:42:29.160Z,14.10
2018-08-16T04:44:58.578Z,14.10
2018-08-16T04:47:27.878Z,14.20
2018-08-16T04:49:57.101Z,14.30
2018-08-16T04:52:26.313Z,14.30
2018-08-16T04:54:55.544Z,14.40
2018-08-16T04:57:24.773Z,14.40
2018-08-16T04:59:54.031Z,14.40
2018-08-16T05:02:23.294Z,14.40
2018-08-16T05:04:52.496Z,14.40
2018-08-16T05:07:21.681Z,14.40
2018-08-16T05:09:50.893Z,14.50
2018-08-16T05:12:20.085Z,14.50
2018-08-16T05:14:49.363Z,14.60
2018-08-16T05:17:18.590Z,14.60
2018-08-16T05:19:47.813Z,14.50
2018-08-16T05:22:16.996Z,14.50
2018-08-16T05:24:46.216Z,14.60
2018-08-16T05:27:15.412Z,14.60
2018-08-16T05:29:44.637Z,14.60
2018-08-16T05:32:13.923Z,14.70
2018-08-16T05:34:43.136Z,14.70
2018-08-16T05:37:12.312Z,14.70
2018-08-16T05:39:41.524Z,14.90
2018-08-16T05:42:10.761Z,15.00
2018-08-16T05:44:40.015Z,15.00
2018-08-16T05:47:09.210Z,15.20
2018-08-16T05:49:38.457Z,15.20
2018-08-16T05:52:07.897Z,15.30
2018-08-16T05:54:37.172Z,15.40
2018-08-16T05:57:06.386Z,15.40
2018-08-16T05:59:35.590Z,15.50
2018-08-16T06:02:04.917Z,15.50
2018-08-16T06:04:34.115Z,15.50
2018-08-16T06:07:03.609Z,15.50
2018-08-16T06:09:32.805Z,15.60
2018-08-16T06:12:02.061Z,15.60
2018-08-16T06:14:31.270Z,15.70
2018-08-16T06:17:00.827Z,15.70
2018-08-16T06:19:30.059Z,15.80
2018-08-16T06:21:59.352Z,15.90
2018-08-16T06:24:28.558Z,16.00
2018-08-16T06:26:57.777Z,16.10
2018-08-16T06:29:26.987Z,16.20
2018-08-16T06:31:56.204Z,16.30
2018-08-16T06:34:25.957Z,16.40
2018-08-16T06:36:55.198Z,16.50
2018-08-16T06:39:24.437Z,16.70
2018-08-16T06:41:53.626Z,16.80
2018-08-16T06:44:22.924Z,16.90
2018-08-16T06:46:52.324Z,17.00
2018-08-16T06:49:21.553Z,17.20
2018-08-16T06:51:50.769Z,17.30
2018-08-16T06:54:19.978Z,17.50
2018-08-16T06:56:49.253Z,17.70
2018-08-16T06:59:18.481Z,17.80
2018-08-16T07:01:47.693Z,17.90
2018-08-16T07:04:16.887Z,18.00
2018-08-16T07:06:46.122Z,18.10
2018-08-16T07:09:15.436Z,18.30
2018-08-16T07:11:44.673Z,18.40
2018-08-16T07:14:13.900Z,18.60
2018-08-16T07:16:43.166Z,18.70
2018-08-16T07:19:12.417Z,18.80
2018-08-16T07:21:41.678Z,18.90
2018-08-16T07:24:10.938Z,19.20
2018-08-16T07:26:40.177Z,19.40
2018-08-16T07:29:09.414Z,19.60
2018-08-16T07:31:38.635Z,19.80
2018-08-16T07:34:07.999Z,20.10
2018-08-16T07:36:37.226Z,20.30
2018-08-16T07:39:09.721Z,20.50
2018-08-16T07:41:39.150Z,20.70
2018-08-16T07:44:08.797Z,20.90
2018-08-16T07:46:38.046Z,21.10
2018-08-16T07:49:07.303Z,21.20
2018-08-16T07:51:36.581Z,21.20
2018-08-16T07:54:05.753Z,21.50
2018-08-16T07:56:34.957Z,21.70
2018-08-16T07:59:04.276Z,21.90
2018-08-16T08:01:33.603Z,22.00
2018-08-16T08:04:02.962Z,22.10
2018-08-16T08:06:32.185Z,22.20
2018-08-16T08:09:01.612Z,22.30
2018-08-16T08:11:30.723Z,22.50
2018-08-16T08:13:59.971Z,22.60
2018-08-16T08:16:29.235Z,22.70
2018-08-16T08:18:58.511Z,22.90
2018-08-16T08:21:27.738Z,23.00
2018-08-16T08:23:57.019Z,23.20
2018-08-16T08:26:26.272Z,23.30
2018-08-16T08:28:55.551Z,23.50
2018-08-16T08:31:24.861Z,23.70
2018-08-16T08:33:54.122Z,23.90
2018-08-16T08:36:40.565Z,24.00
2018-08-16T08:39:10.589Z,24.10
2018-08-16T08:41:39.873Z,24.10
2018-08-16T08:44:27.949Z,24.20
2018-08-16T08:46:57.189Z,24.10
2018-08-16T08:49:26.517Z,24.20
2018-08-16T08:51:55.814Z,24.40
2018-08-16T08:54:45.349Z,24.40
2018-08-16T08:57:32.380Z,24.50
2018-08-16T09:00:01.623Z,24.70
2018-08-16T09:02:30.853Z,24.80
2018-08-16T09:05:00.098Z,25.10
2018-08-16T09:07:29.325Z,25.10
2018-08-16T09:11:16.559Z,25.20
2018-08-16T09:14:09.518Z,25.00
2018-08-16T09:16:40.987Z,25.20
2018-08-16T09:19:11.060Z,25.40
2018-08-16T09:21:40.285Z,25.40
2018-08-16T09:24:09.626Z,25.20
2018-08-16T09:26:41.853Z,25.10
2018-08-16T09:30:35.786Z,25.10
2018-08-16T09:34:26.266Z,25.10
2018-08-16T09:36:55.465Z,25.30
2018-08-16T09:39:24.761Z,25.30
2018-08-16T09:41:53.966Z,25.50
2018-08-16T09:44:23.211Z,25.60
2018-08-16T09:47:10.526Z,25.80
2018-08-16T09:49:44.332Z,26.00
2018-08-16T09:52:14.280Z,26.30
2018-08-16T09:54:43.781Z,26.50
2018-08-16T09:57:14.004Z,26.70
2018-08-16T09:59:43.289Z,26.80
2018-08-16T10:02:15.563Z,27.00
2018-08-16T10:04:44.810Z,27.00
2018-08-16T10:07:14.025Z,27.20
2018-08-16T10:09:43.283Z,27.40
2018-08-16T10:12:12.514Z,27.60
2018-08-16T10:14:41.772Z,27.60
2018-08-16T10:17:11.002Z,27.60
2018-08-16T10:19:40.212Z,27.80
2018-08-16T10:22:09.451Z,27.80
2018-08-16T10:24:38.706Z,27.90
2018-08-16T10:27:07.958Z,28.00
2018-08-16T10:29:37.173Z,28.10
2018-08-16T10:32:06.853Z,28.10
2018-08-16T10:34:36.082Z,28.20
2018-08-16T10:37:05.568Z,28.40
2018-08-16T10:39:34.918Z,28.50
2018-08-16T10:42:04.159Z,28.30
2018-08-16T10:44:33.471Z,28.40
2018-08-16T10:47:02.649Z,28.20
2018-08-16T10:49:31.867Z,28.10
2018-08-16T10:52:01.089Z,28.10
2018-08-16T10:54:30.333Z,28.20
2018-08-16T10:56:59.546Z,28.50
2018-08-16T10:59:28.785Z,28.70
2018-08-16T11:01:58.090Z,29.00
2018-08-16T11:04:27.401Z,29.10
2018-08-16T11:06:56.817Z,29.20
2018-08-16T11:09:26.228Z,29.30
2018-08-16T11:11:55.526Z,29.20
2018-08-16T11:14:24.894Z,29.10
2018-08-16T11:16:54.114Z,29.10
2018-08-16T11:19:23.346Z,29.00
2018-08-16T11:21:52.818Z,29.20
2018-08-16T11:24:22.046Z,29.50
2018-08-16T11:26:51.370Z,29.80
2018-08-16T11:29:20.703Z,30.00
2018-08-16T11:31:49.988Z,30.10
2018-08-16T11:34:19.368Z,30.20
2018-08-16T11:36:48.651Z,30.00
2018-08-16T11:39:17.848Z,29.80
2018-08-16T11:41:47.046Z,30.00
2018-08-16T11:44:16.257Z,30.10
2018-08-16T11:46:45.479Z,30.30
2018-08-16T11:49:14.713Z,30.50
2018-08-16T11:51:43.979Z,30.40
2018-08-16T11:54:13.173Z,30.40
2018-08-16T11:56:42.433Z,30.60
2018-08-16T11:59:11.683Z,30.90
2018-08-16T12:01:40.995Z,31.10
2018-08-16T12:04:10.181Z,31.00
2018-08-16T12:06:39.528Z,31.20
2018-08-16T12:09:10.055Z,30.90
2018-08-16T12:11:39.373Z,30.90
2018-08-16T12:14:08.634Z,31.00
2018-08-16T12:16:37.935Z,31.00
2018-08-16T12:19:07.392Z,31.30
2018-08-16T12:21:36.680Z,31.30
2018-08-16T12:24:05.938Z,31.30
2018-08-16T12:26:35.199Z,31.30
2018-08-16T12:29:04.509Z,31.40
2018-08-16T12:31:33.781Z,31.30
2018-08-16T12:34:03.021Z,30.80
2018-08-16T12:36:32.275Z,31.00
2018-08-16T12:39:01.481Z,31.10
2018-08-16T12:41:30.769Z,31.20
2018-08-16T12:44:00.113Z,31.40
2018-08-16T12:46:29.332Z,30.90
2018-08-16T12:48:58.571Z,30.90
2018-08-16T12:51:27.802Z,31.00
2018-08-16T12:53:57.143Z,31.00
2018-08-16T12:56:26.391Z,30.90
2018-08-16T12:58:55.882Z,31.00
2018-08-16T13:01:25.123Z,31.10
2018-08-16T13:03:54.353Z,31.40
2018-08-16T13:06:23.583Z,31.40
2018-08-16T13:08:52.916Z,31.60
2018-08-16T13:11:23.357Z,31.80
2018-08-16T13:13:52.555Z,31.90
2018-08-16T13:16:21.790Z,31.50
2018-08-16T13:18:51.009Z,30.90
2018-08-16T13:21:20.481Z,30.50
2018-08-16T13:23:49.710Z,30.70
2018-08-16T13:26:18.935Z,30.90
2018-08-16T13:28:51.752Z,31.00
2018-08-16T13:31:21.044Z,30.90
2018-08-16T13:33:50.216Z,30.80
2018-08-16T13:36:19.463Z,30.70
2018-08-16T13:38:48.670Z,30.90
2018-08-16T13:41:18.008Z,31.20
2018-08-16T13:43:47.236Z,31.40
2018-08-16T13:46:16.578Z,31.10
2018-08-16T13:48:45.858Z,31.00
2018-08-16T13:51:15.198Z,31.00
2018-08-16T13:53:44.505Z,31.30
2018-08-16T13:56:13.741Z,31.30
2018-08-16T13:58:42.974Z,30.80
2018-08-16T14:01:12.240Z,30.80
2018-08-16T14:03:41.533Z,30.70
2018-08-16T14:06:10.763Z,30.80
2018-08-16T14:08:40.025Z,30.60
2018-08-16T14:11:09.329Z,30.60
2018-08-16T14:13:38.558Z,30.60
2018-08-16T14:16:15.114Z,30.60
2018-08-16T14:18:44.347Z,30.60
2018-08-16T14:21:13.601Z,30.50
2018-08-16T14:23:43.076Z,30.30
2018-08-16T14:26:12.326Z,30.20
2018-08-16T14:28:41.547Z,29.90
2018-08-16T14:31:10.784Z,29.90
2018-08-16T14:33:40.065Z,29.90
2018-08-16T14:36:09.278Z,30.10
2018-08-16T14:38:38.561Z,30.30
2018-08-16T14:41:07.841Z,30.20
2018-08-16T14:43:37.063Z,30.00
2018-08-16T14:46:06.310Z,30.20
2018-08-16T14:48:35.536Z,30.40
2018-08-16T14:51:04.790Z,30.30
2018-08-16T14:53:34.073Z,30.10
2018-08-16T14:56:03.321Z,30.20
2018-08-16T14:58:32.617Z,30.10
2018-08-16T15:01:01.850Z,30.30
2018-08-16T15:03:31.453Z,30.50
2018-08-16T15:06:00.657Z,30.50
2018-08-16T15:08:30.049Z,30.50
2018-08-16T15:10:59.286Z,30.80
2018-08-16T15:13:28.574Z,30.80
2018-08-16T15:15:57.937Z,30.80
2018-08-16T15:18:27.286Z,30.40
2018-08-16T15:20:56.508Z,30.10
2018-08-16T15:23:25.784Z,30.00
2018-08-16T15:25:55.206Z,29.90
2018-08-16T15:28:24.550Z,29.90
2018-08-16T15:30:53.840Z,29.90
2018-08-16T15:33:23.157Z,29.90
2018-08-16T15:35:52.474Z,29.90
2018-08-16T15:38:21.940Z,29.90
2018-08-16T15:40:51.226Z,30.00
2018-08-16T15:43:20.748Z,29.90
2018-08-16T15:45:50.196Z,29.80
2018-08-16T15:48:19.498Z,29.80
2018-08-16T15:50:48.714Z,30.00
2018-08-16T15:53:17.985Z,29.90
2018-08-16T15:55:47.281Z,29.90
2018-08-16T15:58:16.797Z,30.00
2018-08-16T16:00:46.008Z,30.10
2018-08-16T16:03:15.377Z,30.10
2018-08-16T16:05:44.713Z,30.10
2018-08-16T16:08:14.194Z,30.20
2018-08-16T16:10:43.484Z,30.20
2018-08-16T16:13:12.774Z,30.30
2018-08-16T16:15:42.028Z,30.10
2018-08-16T16:18:11.444Z,29.60
2018-08-16T16:20:40.762Z,29.40
2018-08-16T16:23:10.018Z,29.30
2018-08-16T16:25:39.484Z,29.20
2018-08-16T16:28:08.800Z,29.20
2018-08-16T16:30:38.081Z,29.20
2018-08-16T16:33:07.426Z,29.20
2018-08-16T16:35:36.598Z,29.20
2018-08-16T16:38:06.389Z,29.20
2018-08-16T16:40:35.664Z,29.10
2018-08-16T16:43:05.170Z,29.10
2018-08-16T16:45:34.400Z,29.00
2018-08-16T16:48:03.773Z,29.10
2018-08-16T16:50:33.065Z,29.10
2018-08-16T16:53:02.504Z,29.10
2018-08-16T16:55:31.787Z,29.40
2018-08-16T16:58:01.178Z,29.60
2018-08-16T17:00:30.469Z,29.60
2018-08-16T17:02:59.797Z,29.50
2018-08-16T17:05:29.019Z,29.50
2018-08-16T17:07:58.377Z,29.40
2018-08-16T17:10:27.681Z,29.40
2018-08-16T17:12:57.069Z,29.20
2018-08-16T17:15:26.627Z,29.20
2018-08-16T17:17:55.931Z,29.20
2018-08-16T17:20:25.183Z,29.10
2018-08-16T17:22:54.458Z,29.10
2018-08-16T17:25:23.709Z,29.00
2018-08-16T17:27:52.974Z,29.00
2018-08-16T17:30:22.313Z,28.90
2018-08-16T17:32:51.581Z,28.90
2018-08-16T17:35:20.933Z,28.90
2018-08-16T17:37:50.450Z,28.80
2018-08-16T17:40:19.790Z,28.70
2018-08-16T17:42:48.984Z,28.70
2018-08-16T17:45:18.253Z,28.60
2018-08-16T17:47:47.444Z,28.50
2018-08-16T17:50:16.743Z,28.50
2018-08-16T17:52:46.049Z,28.40
2018-08-16T17:55:15.326Z,28.40
2018-08-16T17:57:44.542Z,28.30
2018-08-16T18:00:13.816Z,28.30
2018-08-16T18:02:43.087Z,28.30
2018-08-16T18:05:12.301Z,28.20
2018-08-16T18:07:41.679Z,28.20
2018-08-16T18:10:11.002Z,28.10
2018-08-16T18:12:40.532Z,28.10
2018-08-16T18:15:11.673Z,28.00
2018-08-16T18:17:40.869Z,27.90
2018-08-16T18:20:10.131Z,27.90
2018-08-16T18:22:39.452Z,27.80
2018-08-16T18:25:09.957Z,27.70
2018-08-16T18:27:39.184Z,27.70
2018-08-16T18:30:10.567Z,27.60
2018-08-16T18:32:40.213Z,27.60
2018-08-16T18:35:09.496Z,27.50
2018-08-16T18:37:44.266Z,27.40
2018-08-16T18:40:13.523Z,27.40
2018-08-16T18:42:42.782Z,27.30
2018-08-16T18:45:12.062Z,27.20
2018-08-16T18:47:41.362Z,27.20
2018-08-16T18:50:10.666Z,27.10
2018-08-16T18:52:40.102Z,27.00
2018-08-16T18:55:09.403Z,27.00
2018-08-16T18:57:38.611Z,26.90
2018-08-16T19:00:08.924Z,26.70
2018-08-16T19:02:38.184Z,26.70
2018-08-16T19:05:07.493Z,26.50
2018-08-16T19:07:36.741Z,26.40
2018-08-16T19:10:07.532Z,26.30
2018-08-16T19:12:36.741Z,26.20
2018-08-16T19:15:06.095Z,26.30
2018-08-16T19:17:35.315Z,26.20
2018-08-16T19:20:04.725Z,26.20
2018-08-16T19:22:33.941Z,25.90
2018-08-16T19:25:04.660Z,25.80
2018-08-16T19:27:33.908Z,25.70
2018-08-16T19:30:03.381Z,25.60
2018-08-16T19:32:32.566Z,25.60
2018-08-16T19:35:01.826Z,25.40
2018-08-16T19:37:31.108Z,25.40
2018-08-16T19:40:00.393Z,25.30
2018-08-16T19:42:29.665Z,25.10
2018-08-16T19:44:59.019Z,25.00
2018-08-16T19:47:28.270Z,25.00
2018-08-16T19:49:57.608Z,24.70
2018-08-16T19:52:26.860Z,24.60
2018-08-16T19:54:56.156Z,24.50
2018-08-16T19:57:25.430Z,24.40
2018-08-16T19:59:54.696Z,24.40
2018-08-16T20:02:23.969Z,24.50
2018-08-16T20:04:53.224Z,24.40
2018-08-16T20:07:22.574Z,24.30
2018-08-16T20:09:51.889Z,24.30
2018-08-16T20:12:21.174Z,24.20
2018-08-16T20:14:50.398Z,24.10
2018-08-16T20:17:19.700Z,24.10
2018-08-16T20:19:49.059Z,24.00
2018-08-16T20:22:19.952Z,24.00
2018-08-16T20:24:49.771Z,24.00
2018-08-16T20:27:19.011Z,23.80
2018-08-16T20:29:48.262Z,23.80
2018-08-16T20:32:18.769Z,23.80
2018-08-16T20:34:48.041Z,23.80
2018-08-16T20:37:17.269Z,23.70
2018-08-16T20:39:46.536Z,23.80
2018-08-16T20:42:15.770Z,23.70
2018-08-16T20:44:45.049Z,23.50
2018-08-16T20:47:14.269Z,23.40
2018-08-16T20:49:43.537Z,23.30
2018-08-16T20:52:12.753Z,23.30
2018-08-16T20:54:41.984Z,23.20
2018-08-16T20:57:11.236Z,23.20
2018-08-16T20:59:40.483Z,23.20
2018-08-16T21:02:13.429Z,23.20
2018-08-16T21:04:43.100Z,23.20
2018-08-16T21:07:12.644Z,23.10
2018-08-16T21:09:41.928Z,23.10
2018-08-16T21:12:11.146Z,23.10
2018-08-16T21:14:40.685Z,23.00
2018-08-16T21:17:09.948Z,23.00
2018-08-16T21:19:39.211Z,23.10
2018-08-16T21:22:08.511Z,23.00
2018-08-16T21:24:37.754Z,23.00
2018-08-16T21:27:07.033Z,23.00
2018-08-16T21:29:39.225Z,22.90
2018-08-16T21:32:08.522Z,22.80
2018-08-16T21:34:37.898Z,22.80
2018-08-16T21:37:07.089Z,22.80
2018-08-16T21:39:36.361Z,22.80
2018-08-16T21:42:05.669Z,22.70
2018-08-16T21:44:34.896Z,22.50
2018-08-16T21:47:04.173Z,22.50
2018-08-16T21:49:33.409Z,22.60
2018-08-16T21:52:02.834Z,22.60
2018-08-16T21:54:32.060Z,22.60
2018-08-16T21:57:01.407Z,22.40
2018-08-16T21:59:30.675Z,22.30
2018-08-16T22:02:00.709Z,22.20
2018-08-16T22:04:29.925Z,22.10
2018-08-16T22:08:12.995Z,22.10
2018-08-16T22:10:43.481Z,22.00
2018-08-16T22:13:12.712Z,22.00
2018-08-16T22:15:41.997Z,21.90
2018-08-16T22:18:11.449Z,21.80
2018-08-16T22:20:40.880Z,21.80
2018-08-16T22:23:10.067Z,21.80
2018-08-16T22:25:39.295Z,21.70
2018-08-16T22:28:08.561Z,21.80
2018-08-16T22:30:37.867Z,21.70
2018-08-16T22:33:07.101Z,21.70
2018-08-16T22:35:36.310Z,21.60
2018-08-16T22:38:05.616Z,21.70
2018-08-16T22:40:34.848Z,21.60
2018-08-16T22:43:04.065Z,21.60
2018-08-16T22:45:33.372Z,21.50
2018-08-16T22:48:02.656Z,21.50
2018-08-16T22:50:31.896Z,21.50
2018-08-16T22:53:01.179Z,21.50
2018-08-16T22:55:30.433Z,21.40
2018-08-16T22:57:59.696Z,21.40
2018-08-16T23:00:28.941Z,21.40
2018-08-16T23:02:58.208Z,21.40
2018-08-16T23:05:27.468Z,21.30
2018-08-16T23:07:56.752Z,21.30
2018-08-16T23:10:26.185Z,21.20
2018-08-16T23:12:55.416Z,21.20
2018-08-16T23:15:24.643Z,21.20
2018-08-16T23:17:53.872Z,21.20
2018-08-16T23:20:23.072Z,21.20
2018-08-16T23:22:52.301Z,21.20
2018-08-16T23:25:21.561Z,21.10
2018-08-16T23:27:50.771Z,21.00
2018-08-16T23:30:19.990Z,21.10
2018-08-16T23:32:49.222Z,21.00
2018-08-16T23:35:18.712Z,20.90
2018-08-16T23:37:47.956Z,20.90
2018-08-16T23:40:17.264Z,20.90
2018-08-16T23:42:46.547Z,20.90
2018-08-16T23:45:15.788Z,20.80
2018-08-16T23:48:00.825Z,20.80
2018-08-16T23:50:30.024Z,20.80
2018-08-16T23:52:59.245Z,20.80
2018-08-16T23:55:28.572Z,20.70
2018-08-16T23:57:57.889Z,20.70
